Time;durP1;ratioP1;P1;durP2;ratioP2;P2;SDS_P1;SDS_P2;PMS_P1;PMS_P2;Temp;Humidity;BMP_temperature;BMP_pressure;BME280_temperature;BME280_humidity;BME280_pressure;Samples;Min_cycle;Max_cycle;Signal;HPM_P1;HPM_P2
2024/04/11 00:02:10;;;;;;;;;;;;;;;21.51;34.91;101584.95;102923;1291;63005;-78
2024/04/11 00:04:36;;;;;;;;;;;;;;;21.51;34.81;101584.97;102885;1297;63535;-77
2024/04/11 00:07:01;;;;;;;;;;;;;;;21.51;34.88;101586.21;102960;1291;64662;-78
2024/04/11 00:09:27;;;;;;;;;;;;;;;21.51;34.91;101581.42;102993;1291;62901;-79
2024/04/11 00:11:53;;;;;;;;;;;;;;;21.51;34.78;101587.85;102884;1292;63096;-78
2024/04/11 00:14:18;;;;;;;;;;;;;;;21.50;34.94;101589.13;103087;1295;63005;-80
2024/04/11 00:16:44;;;;;;;;;;;;;;;21.51;34.93;101587.33;103341;1291;63001;-79
2024/04/11 00:19:09;;;;;;;;;;;;;;;21.50;35.03;101590.57;103043;1290;63542;-78
2024/04/11 00:21:35;;;;;;;;;;;;;;;21.50;34.98;101595.05;103050;1292;63531;-80
2024/04/11 00:24:01;;;;;;;;;;;;;;;21.50;34.97;101591.83;103179;1294;64086;-78
2024/04/11 00:26:26;;;;;;;;;;;;;;;21.50;35.02;101589.86;102904;1292;63555;-79
2024/04/11 00:28:53;;;;;;;;;;;;;;;21.50;34.99;101585.20;103014;1291;63071;-78
2024/04/11 00:31:19;;;;;;;;;;;;;;;21.50;34.92;101589.36;103080;1294;62929;-79
2024/04/11 00:34:23;;;;;;;;;;;;;;;21.50;35.04;101588.79;103060;1291;63085;-77
2024/04/11 00:36:40;;;;;;;;;;;;;;;21.50;35.04;101592.91;103194;1291;75928;-78
2024/04/11 00:39:05;;;;;;;;;;;;;;;21.50;35.08;101594.00;103264;1290;62896;-78
2024/04/11 00:41:31;;;;;;;;;;;;;;;21.50;35.07;101593.98;103189;1291;63039;-79
2024/04/11 00:43:59;;;;;;;;;;;;;;;21.50;35.12;101594.72;103228;1293;63012;-77
2024/04/11 00:46:27;;;;;;;;;;;;;;;21.50;35.07;101594.01;103072;1292;64319;-78
2024/04/11 00:48:54;;;;;;;;;;;;;;;21.50;35.09;101595.77;102967;1291;63453;-78
2024/04/11 00:51:20;;;;;;;;;;;;;;;21.50;35.03;101592.73;103190;1291;62983;-79
2024/04/11 00:53:48;;;;;;;;;;;;;;;21.50;35.04;101595.25;102843;1291;63086;-78
2024/04/11 00:56:14;;;;;;;;;;;;;;;21.50;35.16;101595.08;102887;1291;75945;-78
2024/04/11 00:58:40;;;;;;;;;;;;;;;21.50;35.20;101588.44;102667;1298;63014;-78
2024/04/11 01:01:05;;;;;;;;;;;;;;;21.49;35.09;101587.94;102862;1291;63005;-77
2024/04/11 01:03:31;;;;;;;;;;;;;;;21.49;35.15;101587.77;102947;1295;63367;-78
2024/04/11 01:05:56;;;;;;;;;;;;;;;21.49;35.26;101586.69;102730;1298;63610;-80
2024/04/11 01:08:26;;;;;;;;;;;;;;;21.49;35.17;101584.76;102751;1291;75931;-79
2024/04/11 01:10:51;;;;;;;;;;;;;;;21.49;35.21;101583.15;102886;1294;62927;-78
2024/04/11 01:13:17;;;;;;;;;;;;;;;21.49;35.21;101589.77;102943;1291;63157;-78
2024/04/11 01:15:44;;;;;;;;;;;;;;;21.49;35.25;101586.73;103261;1292;63055;-77
2024/04/11 01:18:09;;;;;;;;;;;;;;;21.48;35.28;101587.48;103060;1294;63046;-77
2024/04/11 01:20:36;;;;;;;;;;;;;;;21.48;35.28;101583.71;103100;1294;62962;-79
2024/04/11 01:23:03;;;;;;;;;;;;;;;21.48;35.20;101581.91;103061;1291;62994;-78
2024/04/11 01:25:31;;;;;;;;;;;;;;;21.49;35.32;101580.48;103000;1294;72523;-78
2024/04/11 01:27:57;;;;;;;;;;;;;;;21.49;35.31;101580.63;103159;1290;63462;-80
2024/04/11 01:30:23;;;;;;;;;;;;;;;21.49;35.24;101578.67;103185;1289;64218;-78
2024/04/11 01:32:49;;;;;;;;;;;;;;;21.48;35.48;101579.23;103096;1290;63000;-79
2024/04/11 01:35:16;;;;;;;;;;;;;;;21.49;35.38;101579.23;103325;1294;62935;-79
2024/04/11 01:37:42;;;;;;;;;;;;;;;21.48;35.40;101579.94;103277;1294;63004;-78
2024/04/11 01:40:08;;;;;;;;;;;;;;;21.48;35.16;101583.35;103294;1292;64207;-79
2024/04/11 01:42:34;;;;;;;;;;;;;;;21.48;35.39;101584.43;103117;1290;62934;-78
2024/04/11 01:45:00;;;;;;;;;;;;;;;21.48;35.42;101585.50;102973;1292;63190;-79
2024/04/11 01:47:26;;;;;;;;;;;;;;;21.48;35.28;101588.91;103199;1291;71993;-79
2024/04/11 01:49:54;;;;;;;;;;;;;;;21.48;35.38;101591.06;103155;1294;76061;-78
2024/04/11 01:52:19;;;;;;;;;;;;;;;21.48;35.36;101589.80;103163;1292;64743;-78
2024/04/11 01:54:45;;;;;;;;;;;;;;;21.48;35.37;101595.02;103347;1294;63077;-78
2024/04/11 01:57:10;;;;;;;;;;;;;;;21.48;35.46;101597.17;103199;1289;63031;-79
2024/04/11 01:59:36;;;;;;;;;;;;;;;21.47;35.33;101598.44;103124;1292;63439;-78
2024/04/11 02:02:02;;;;;;;;;;;;;;;21.48;35.43;101596.48;103185;1290;64044;-78
2024/04/11 02:04:30;;;;;;;;;;;;;;;21.47;35.33;101598.27;103202;1291;63224;-78
2024/04/11 02:06:56;;;;;;;;;;;;;;;21.47;35.41;101592.91;103126;1291;64433;-79
2024/04/11 02:09:23;;;;;;;;;;;;;;;21.47;35.43;101593.27;103194;1294;63007;-78
2024/04/11 02:11:51;;;;;;;;;;;;;;;21.47;35.39;101598.13;103443;1294;63090;-77
2024/04/11 02:14:18;;;;;;;;;;;;;;;21.47;35.42;101596.51;103187;1291;63462;-80
2024/04/11 02:16:44;;;;;;;;;;;;;;;21.47;35.50;101597.23;103387;1291;62907;-79
2024/04/11 02:19:11;;;;;;;;;;;;;;;21.47;35.50;101596.53;103410;1290;62930;-79
2024/04/11 02:21:40;;;;;;;;;;;;;;;21.47;35.49;101597.24;103304;1291;62936;-78
2024/04/11 02:24:06;;;;;;;;;;;;;;;21.47;35.47;101599.76;102382;1291;1128529;-79
2024/04/11 02:26:34;;;;;;;;;;;;;;;21.47;35.58;101601.36;103272;1291;62963;-78
2024/04/11 02:29:08;;;;;;;;;;;;;;;21.47;35.50;101601.00;103312;1291;62869;-79
2024/04/11 02:31:34;;;;;;;;;;;;;;;21.47;35.51;101602.59;103203;1294;76190;-79
2024/04/11 02:34:00;;;;;;;;;;;;;;;21.47;35.47;101610.30;103120;1294;63090;-79
2024/04/11 02:36:34;;;;;;;;;;;;;;;21.47;35.50;101613.51;103223;1291;63906;-78
2024/04/11 02:39:00;;;;;;;;;;;;;;;21.47;35.53;101613.35;103245;1294;72667;-78
2024/04/11 02:41:29;;;;;;;;;;;;;;;21.47;35.55;101613.18;103324;1292;64209;-79
2024/04/11 02:43:55;;;;;;;;;;;;;;;21.47;35.52;101615.65;103026;1292;62944;-77
2024/04/11 02:46:21;;;;;;;;;;;;;;;21.46;35.64;101612.84;103359;1292;63097;-78
2024/04/11 02:48:47;;;;;;;;;;;;;;;21.47;35.64;101615.14;103181;1292;62950;-79
2024/04/11 02:51:13;;;;;;;;;;;;;;;21.46;35.60;101615.70;103174;1291;63001;-79
2024/04/11 02:53:39;;;;;;;;;;;;;;;21.46;35.52;101617.70;103145;1291;62933;-78
2024/04/11 02:56:07;;;;;;;;;;;;;;;21.46;35.51;101620.59;102980;1292;63009;-77
2024/04/11 02:58:33;;;;;;;;;;;;;;;21.45;35.43;101621.16;103144;1292;62973;-78
2024/04/11 03:01:00;;;;;;;;;;;;;;;21.45;35.66;101618.84;102934;1295;64135;-78
2024/04/11 03:03:25;;;;;;;;;;;;;;;21.44;35.55;101622.46;102975;1291;63605;-79
2024/04/11 03:05:51;;;;;;;;;;;;;;;21.45;35.54;101620.27;103125;1291;63004;-78
2024/04/11 03:08:19;;;;;;;;;;;;;;;21.45;35.53;101620.83;103197;1291;62987;-78
2024/04/11 03:10:44;;;;;;;;;;;;;;;21.44;35.52;101622.66;103203;1289;64264;-78
2024/04/11 03:13:17;;;;;;;;;;;;;;;21.44;35.65;101624.81;103137;1294;62838;-79
2024/04/11 03:15:44;;;;;;;;;;;;;;;21.44;35.58;101625.70;103501;1292;63008;-79
2024/04/11 03:18:11;;;;;;;;;;;;;;;21.44;35.46;101626.42;103217;1294;72570;-78
2024/04/11 03:20:37;;;;;;;;;;;;;;;21.43;35.56;101630.73;103225;1291;63437;-77
2024/04/11 03:23:03;;;;;;;;;;;;;;;21.43;35.58;101632.88;103164;1294;63887;-78
2024/04/11 03:25:30;;;;;;;;;;;;;;;21.43;35.54;101634.84;103122;1291;63030;-79
2024/04/11 03:27:56;;;;;;;;;;;;;;;21.43;35.51;101636.66;103333;1294;63007;-78
2024/04/11 03:30:23;;;;;;;;;;;;;;;21.43;35.49;101639.90;102878;1291;62995;-79
2024/04/11 03:32:50;;;;;;;;;;;;;;;21.42;35.55;101640.67;103097;1291;63571;-78
2024/04/11 03:35:16;;;;;;;;;;;;;;;21.43;35.48;101646.00;103143;1291;62982;-79
2024/04/11 03:37:41;;;;;;;;;;;;;;;21.42;35.60;101653.20;103079;1294;62998;-79
2024/04/11 03:40:08;;;;;;;;;;;;;;;21.41;35.48;101653.95;103164;1291;63085;-79
2024/04/11 03:42:34;;;;;;;;;;;;;;;21.42;35.58;101657.50;103113;1292;63862;-78
2024/04/11 03:45:10;;;;;;;;;;;;;;;21.41;35.50;101663.77;103215;1291;64141;-78
2024/04/11 03:47:37;;;;;;;;;;;;;;;21.42;35.43;101667.91;103158;1294;72697;-78
2024/04/11 03:50:03;;;;;;;;;;;;;;;21.41;35.41;101672.04;103171;1290;75998;-78
2024/04/11 03:52:31;;;;;;;;;;;;;;;21.41;35.40;101672.94;103182;1289;62982;-78
2024/04/11 03:54:56;;;;;;;;;;;;;;;21.41;35.60;101674.38;103240;1291;63004;-78
2024/04/11 03:57:25;;;;;;;;;;;;;;;21.40;35.51;101674.43;103129;1292;63034;-79
2024/04/11 03:59:52;;;;;;;;;;;;;;;21.40;35.45;101674.98;103100;1291;76033;-78
2024/04/11 04:02:17;;;;;;;;;;;;;;;21.40;35.57;101676.98;103109;1291;63087;-78
2024/04/11 04:04:44;;;;;;;;;;;;;;;21.39;35.41;101678.27;103271;1291;63105;-78
2024/04/11 04:07:09;;;;;;;;;;;;;;;21.38;35.37;101679.20;103075;1294;63004;-78
2024/04/11 04:09:35;;;;;;;;;;;;;;;21.38;35.47;101678.36;103284;1294;62953;-78
2024/04/11 04:12:01;;;;;;;;;;;;;;;21.37;35.29;101681.61;103158;1292;63013;-79
2024/04/11 04:14:26;;;;;;;;;;;;;;;21.37;35.38;101682.34;103474;1291;63789;-79
2024/04/11 04:16:54;;;;;;;;;;;;;;;21.36;35.24;101682.92;103496;1291;62875;-78
2024/04/11 04:19:20;;;;;;;;;;;;;;;21.36;35.24;101682.93;103400;1290;63037;-78
2024/04/11 04:21:46;;;;;;;;;;;;;;;21.36;35.35;101686.52;103487;1294;63029;-77
2024/04/11 04:24:12;;;;;;;;;;;;;;;21.36;35.29;101686.67;103055;1294;62981;-79
2024/04/11 04:26:39;;;;;;;;;;;;;;;21.35;35.28;101688.53;103427;1291;63066;-79
2024/04/11 04:29:04;;;;;;;;;;;;;;;21.34;35.35;101689.70;103172;1292;63001;-79
2024/04/11 04:31:30;;;;;;;;;;;;;;;21.33;35.26;101696.17;103412;1290;63580;-79
2024/04/11 04:34:00;;;;;;;;;;;;;;;21.32;35.24;101696.59;103198;1291;63016;-79
2024/04/11 04:36:26;;;;;;;;;;;;;;;21.31;35.19;101701.31;103450;1290;63501;-81
2024/04/11 04:38:52;;;;;;;;;;;;;;;21.30;35.05;101706.41;103425;1291;62899;-78
2024/04/11 04:41:18;;;;;;;;;;;;;;;21.27;34.99;101707.79;103518;1290;63013;-78
2024/04/11 04:43:44;;;;;;;;;;;;;;;21.25;35.14;101710.06;103554;1293;62923;-79
2024/04/11 04:46:13;;;;;;;;;;;;;;;21.23;35.01;101714.09;103150;1292;63001;-79
2024/04/11 04:48:38;;;;;;;;;;;;;;;21.23;34.92;101716.09;103891;1293;72436;-80
2024/04/11 04:51:04;;;;;;;;;;;;;;;21.23;35.04;101719.48;103893;1291;63026;-79
2024/04/11 04:53:30;;;;;;;;;;;;;;;21.22;35.07;101724.52;104041;1291;62903;-78
2024/04/11 04:55:56;;;;;;;;;;;;;;;21.21;35.23;101724.64;104140;1292;62961;-79
2024/04/11 04:58:22;;;;;;;;;;;;;;;21.19;35.14;101726.14;104439;1291;62956;-79
2024/04/11 05:00:47;;;;;;;;;;;;;;;21.19;35.19;101728.84;104378;1290;63005;-80
2024/04/11 05:03:14;;;;;;;;;;;;;;;21.18;35.00;101730.67;104869;1291;62981;-79
2024/04/11 05:05:40;;;;;;;;;;;;;;;21.14;34.87;101734.47;106151;1291;60437;-78
2024/04/11 05:08:13;;;;;;;;;;;;;;;21.13;35.07;101736.88;105437;1291;62894;-79
2024/04/11 05:10:40;;;;;;;;;;;;;;;21.12;35.06;101736.95;104565;1291;71711;-78
2024/04/11 05:13:09;;;;;;;;;;;;;;;21.12;35.09;101740.54;104290;1294;76175;-78
2024/04/11 05:15:38;;;;;;;;;;;;;;;21.12;35.13;101747.35;104035;1291;62881;-77
2024/04/11 05:18:06;;;;;;;;;;;;;;;21.13;35.03;101751.40;104094;1294;62687;-77
2024/04/11 05:20:36;;;;;;;;;;;;;;;21.13;34.96;101756.77;104249;1290;72285;-79
2024/04/11 05:23:04;;;;;;;;;;;;;;;21.12;34.99;101755.90;104392;1290;76095;-80
2024/04/11 05:25:32;;;;;;;;;;;;;;;21.12;35.02;101757.16;104459;1290;62949;-80
2024/04/11 05:27:58;;;;;;;;;;;;;;;21.11;35.02;101761.50;104139;1292;63006;-78
2024/04/11 05:30:27;;;;;;;;;;;;;;;21.10;35.07;101769.77;104147;1294;63013;-77
2024/04/11 05:32:54;;;;;;;;;;;;;;;21.09;35.08;101776.29;103976;1291;75995;-76
2024/04/11 05:35:23;;;;;;;;;;;;;;;21.08;35.23;101779.73;104134;1291;62899;-77
2024/04/11 05:37:49;;;;;;;;;;;;;;;21.08;35.34;101779.58;104325;1294;62903;-79
2024/04/11 05:40:15;;;;;;;;;;;;;;;21.08;35.36;101781.00;103993;1291;62921;-78
2024/04/11 05:42:45;;;;;;;;;;;;;;;21.09;35.50;101784.70;103875;1290;63059;-77
2024/04/11 05:45:11;;;;;;;;;;;;;;;21.10;35.32;101788.97;104235;1292;63121;-79
2024/04/11 05:47:37;;;;;;;;;;;;;;;21.10;35.44;101792.16;104062;1291;60882;-79
2024/04/11 05:50:06;;;;;;;;;;;;;;;21.10;35.52;101795.73;104191;1291;63081;-79
2024/04/11 05:52:31;;;;;;;;;;;;;;;21.09;35.53;101799.91;105485;1290;76129;-77
2024/04/11 05:54:57;;;;;;;;;;;;;;;21.06;35.38;101799.36;104425;1291;62990;-79
2024/04/11 05:57:24;;;;;;;;;;;;;;;21.06;35.54;101806.71;104412;1291;62927;-80
2024/04/11 05:59:51;;;;;;;;;;;;;;;21.07;35.58;101810.92;106118;1290;60524;-80
2024/04/11 06:02:17;;;;;;;;;;;;;;;21.10;35.69;101807.39;106010;1291;62225;-77
2024/04/11 06:04:43;;;;;;;;;;;;;;;21.12;35.78;101812.28;104993;1292;63010;-79
2024/04/11 06:07:08;;;;;;;;;;;;;;;21.09;35.58;101816.38;103952;1289;62951;-78
2024/04/11 06:09:34;;;;;;;;;;;;;;;21.06;35.56;101821.89;104125;1297;63016;-78
2024/04/11 06:12:03;;;;;;;;;;;;;;;21.07;35.53;101820.41;104213;1294;62978;-82
2024/04/11 06:14:29;;;;;;;;;;;;;;;21.09;35.34;101825.14;104157;1292;64394;-80
2024/04/11 06:16:54;;;;;;;;;;;;;;;21.10;35.31;101830.30;104125;1292;63362;-80
2024/04/11 06:19:21;;;;;;;;;;;;;;;21.12;35.31;101831.98;104375;1289;61708;-79
2024/04/11 06:21:53;;;;;;;;;;;;;;;21.14;35.25;101836.87;104428;1292;62990;-80
2024/04/11 06:24:22;;;;;;;;;;;;;;;21.17;35.00;101841.23;104851;1291;63023;-80
2024/04/11 06:26:48;;;;;;;;;;;;;;;21.18;35.02;101843.64;106155;1292;60615;-79
2024/04/11 06:29:19;;;;;;;;;;;;;;;21.21;34.90;101849.23;105139;1291;62900;-81
2024/04/11 06:31:46;;;;;;;;;;;;;;;21.23;34.90;101852.14;104282;1290;76420;-81
2024/04/11 06:34:13;;;;;;;;;;;;;;;21.25;34.96;101855.25;104231;1292;62956;-80
2024/04/11 06:36:39;;;;;;;;;;;;;;;21.27;34.68;101852.63;104023;1291;62716;-80
2024/04/11 06:39:09;;;;;;;;;;;;;;;21.29;34.76;101856.14;104456;1288;62949;-78
2024/04/11 06:41:36;;;;;;;;;;;;;;;21.31;34.64;101860.66;103820;1292;76143;-78
2024/04/11 06:44:03;;;;;;;;;;;;;;;21.31;34.58;101861.38;103863;1289;63106;-77
2024/04/11 06:46:29;;;;;;;;;;;;;;;21.30;34.57;101864.48;104445;1290;62929;-78
2024/04/11 06:48:57;;;;;;;;;;;;;;;21.27;34.26;101867.00;104252;1289;62945;-81
2024/04/11 06:51:23;;;;;;;;;;;;;;;21.15;34.10;101864.05;104206;1292;76088;-79
2024/04/11 06:53:48;;;;;;;;;;;;;;;21.06;34.29;101863.79;104239;1291;62911;-82
2024/04/11 06:56:17;;;;;;;;;;;;;;;20.95;34.04;101872.64;104271;1291;62883;-78
2024/04/11 06:58:45;;;;;;;;;;;;;;;20.85;34.29;101870.11;104370;1290;72566;-77
2024/04/11 07:01:15;;;;;;;;;;;;;;;20.83;34.19;101870.60;104202;1294;76008;-79
2024/04/11 07:03:44;;;;;;;;;;;;;;;20.83;34.20;101871.84;104666;1290;62713;-80
2024/04/11 07:06:10;;;;;;;;;;;;;;;20.82;34.27;101870.27;104611;1292;62793;-79
2024/04/11 07:08:37;;;;;;;;;;;;;;;20.86;34.25;101877.55;104578;1291;63019;-78
2024/04/11 07:11:20;;;;;;;;;;;;;;;20.92;34.27;101877.98;105633;1294;76152;-78
2024/04/11 07:13:46;;;;;;;;;;;;;;;20.99;34.50;101884.95;104297;1291;62875;-81
2024/04/11 07:16:16;;;;;;;;;;;;;;;21.04;34.37;101883.05;104647;1291;60791;-79
2024/04/11 07:18:48;;;;;;;;;;;;;;;21.05;34.33;101883.55;104646;1292;72649;-78
2024/04/11 07:21:17;;;;;;;;;;;;;;;21.07;34.34;101880.36;106152;1293;76141;-79
2024/04/11 07:23:43;;;;;;;;;;;;;;;21.13;34.43;101887.60;106195;1289;61255;-79
2024/04/11 07:26:11;;;;;;;;;;;;;;;21.19;34.52;101888.02;105852;1289;60898;-80
2024/04/11 07:28:40;;;;;;;;;;;;;;;21.23;34.38;101886.67;104330;1290;73101;-77
2024/04/11 07:31:06;;;;;;;;;;;;;;;21.27;34.28;101888.96;106061;1292;76084;-79
2024/04/11 07:33:32;;;;;;;;;;;;;;;21.30;34.31;101886.86;104891;1289;62902;-78
2024/04/11 07:35:58;;;;;;;;;;;;;;;21.31;34.29;101885.38;104392;1291;62976;-78
2024/04/11 07:38:26;;;;;;;;;;;;;;;21.33;34.25;101889.21;104107;1291;62989;-81
2024/04/11 07:40:54;;;;;;;;;;;;;;;21.35;34.31;101894.46;104172;1291;77048;-79
2024/04/11 07:43:22;;;;;;;;;;;;;;;21.37;34.26;101895.75;104338;1289;62910;-77
2024/04/11 07:45:48;;;;;;;;;;;;;;;21.38;34.30;101897.69;104079;1289;63171;-78
2024/04/11 07:48:16;;;;;;;;;;;;;;;21.39;34.35;101895.45;104283;1289;60752;-78
2024/04/11 07:50:45;;;;;;;;;;;;;;;21.40;34.23;101896.68;104301;1289;76069;-79
2024/04/11 07:53:18;;;;;;;;;;;;;;;21.36;34.18;101899.78;104447;1291;63462;-80
2024/04/11 07:55:54;;;;;;;;;;;;;;;21.28;34.18;101899.48;104404;1294;62961;-79
2024/04/11 07:58:20;;;;;;;;;;;;;;;21.27;34.35;101904.21;104377;1292;72589;-79
2024/04/11 08:00:50;;;;;;;;;;;;;;;21.27;34.44;101903.83;104365;1289;76595;-79
2024/04/11 08:03:18;;;;;;;;;;;;;;;21.30;34.51;101902.05;104480;1290;62963;-79
2024/04/11 08:05:44;;;;;;;;;;;;;;;21.33;34.65;101903.88;104347;1291;62989;-78
2024/04/11 08:08:12;;;;;;;;;;;;;;;21.33;34.77;101904.40;104173;1289;62901;-80
2024/04/11 08:10:45;;;;;;;;;;;;;;;21.32;34.76;101903.03;104451;1290;75756;-79
2024/04/11 08:13:13;;;;;;;;;;;;;;;21.35;34.70;101910.02;104195;1289;63010;-78
2024/04/11 08:15:40;;;;;;;;;;;;;;;21.37;34.83;101909.91;104155;1291;63007;-79
2024/04/11 08:18:06;;;;;;;;;;;;;;;21.39;34.84;101910.20;104494;1293;62853;-78
2024/04/11 08:20:32;;;;;;;;;;;;;;;21.37;34.79;101913.86;104106;1291;63609;-78
2024/04/11 08:23:01;;;;;;;;;;;;;;;21.31;34.74;101911.48;104340;1292;62851;-79
2024/04/11 08:25:26;;;;;;;;;;;;;;;21.31;34.88;101908.30;104374;1294;61010;-79
2024/04/11 08:27:54;;;;;;;;;;;;;;;21.32;34.92;101908.23;104416;1292;61273;-78
2024/04/11 08:30:20;;;;;;;;;;;;;;;21.35;34.87;101908.95;104701;1289;76017;-80
2024/04/11 08:32:45;;;;;;;;;;;;;;;21.37;34.84;101911.55;104333;1291;63016;-79
2024/04/11 08:35:20;;;;;;;;;;;;;;;21.36;34.98;101909.59;104325;1292;62882;-79
2024/04/11 08:37:51;;;;;;;;;;;;;;;21.39;35.07;101916.81;104380;1290;72721;-80
2024/04/11 08:40:17;;;;;;;;;;;;;;;21.41;35.06;101914.73;104169;1296;74852;-80
2024/04/11 08:42:43;;;;;;;;;;;;;;;21.43;35.13;101917.30;104607;1291;61009;-79
2024/04/11 08:45:08;;;;;;;;;;;;;;;21.45;35.17;101915.23;104552;1294;63000;-79
2024/04/11 08:47:34;;;;;;;;;;;;;;;21.46;35.16;101914.63;104320;1291;64542;-80
2024/04/11 08:50:00;;;;;;;;;;;;;;;21.45;35.22;101916.11;104570;1294;60909;-81
2024/04/11 08:52:26;;;;;;;;;;;;;;;21.45;35.26;101913.98;104759;1292;61950;-79
2024/04/11 08:54:52;;;;;;;;;;;;;;;21.45;35.37;101911.65;104963;1292;62892;-79
2024/04/11 08:57:18;;;;;;;;;;;;;;;21.47;35.55;101906.85;104996;1289;61790;-81
2024/04/11 08:59:44;;;;;;;;;;;;;;;21.50;35.77;101905.08;105190;1294;62125;-81
2024/04/11 09:02:10;;;;;;;;;;;;;;;21.55;35.83;101905.56;105283;1289;62994;-82
2024/04/11 09:04:36;;;;;;;;;;;;;;;21.57;35.96;101905.24;105030;1289;60760;-78
2024/04/11 09:07:04;;;;;;;;;;;;;;;21.61;36.18;101902.01;105179;1298;63007;-79
2024/04/11 09:09:30;;;;;;;;;;;;;;;21.65;36.24;101902.13;105258;1294;60509;-80
2024/04/11 09:11:56;;;;;;;;;;;;;;;21.68;36.47;101903.75;105073;1289;62820;-79
2024/04/11 09:14:23;;;;;;;;;;;;;;;21.71;36.52;101900.55;105026;1294;63384;-79
2024/04/11 09:17:04;;;;;;;;;;;;;;;21.77;37.06;101901.30;104994;1291;62899;-79
2024/04/11 09:19:39;;;;;;;;;;;;;;;21.82;37.18;101901.02;104567;1294;72656;-81
2024/04/11 09:22:13;;;;;;;;;;;;;;;21.83;37.23;101899.88;104568;1290;76070;-79
2024/04/11 09:24:41;;;;;;;;;;;;;;;21.82;37.13;101904.58;104377;1294;62877;-80
2024/04/11 09:27:18;;;;;;;;;;;;;;;21.81;37.15;101901.95;106019;1289;62995;-81
2024/04/11 09:29:43;;;;;;;;;;;;;;;21.80;37.14;101901.30;104359;1295;72642;-83
2024/04/11 09:32:12;;;;;;;;;;;;;;;21.79;37.00;101904.41;106142;1292;76335;-79
2024/04/11 09:34:39;;;;;;;;;;;;;;;21.79;36.86;101910.52;104642;1292;62924;-79
2024/04/11 09:37:14;;;;;;;;;;;;;;;21.77;36.89;101906.66;104390;1292;63248;-79
2024/04/11 09:39:56;;;;;;;;;;;;;;;21.77;36.83;101908.10;106112;1289;72499;-80
2024/04/11 09:42:25;;;;;;;;;;;;;;;21.78;37.06;101905.36;104285;1292;76880;-78
2024/04/11 09:44:52;;;;;;;;;;;;;;;21.79;37.02;101910.15;104357;1294;62809;-79
2024/04/11 09:47:28;;;;;;;;;;;;;;;21.78;37.05;101916.80;104758;1295;63096;-81
2024/04/11 09:49:55;;;;;;;;;;;;;;;21.79;37.12;101909.46;104656;1293;72289;-80
2024/04/11 09:52:22;;;;;;;;;;;;;;;21.79;37.01;101906.01;104716;1289;75992;-82
2024/04/11 09:54:49;;;;;;;;;;;;;;;21.79;37.09;101908.19;104568;1290;62928;-81
2024/04/11 09:57:21;;;;;;;;;;;;;;;21.78;37.06;101904.84;104758;1291;60537;-82
2024/04/11 09:59:47;;;;;;;;;;;;;;;21.78;37.19;101905.36;104666;1294;72163;-83
2024/04/11 10:02:16;;;;;;;;;;;;;;;21.78;37.22;101899.24;105891;1294;61257;-80
2024/04/11 10:04:42;;;;;;;;;;;;;;;21.80;37.31;101902.52;105474;1289;62903;-79
2024/04/11 10:07:16;;;;;;;;;;;;;;;21.83;37.46;101900.55;104983;1290;63017;-82
2024/04/11 10:09:48;;;;;;;;;;;;;;;21.86;37.47;101902.01;105024;1292;73603;-79
2024/04/11 10:12:28;;;;;;;;;;;;;;;21.90;37.61;101901.78;105062;1292;75882;-78
2024/04/11 10:14:57;;;;;;;;;;;;;;;21.93;37.86;101894.78;104955;1290;62614;-78
2024/04/11 10:17:28;;;;;;;;;;;;;;;21.98;37.91;101898.48;104693;1290;62732;-79
2024/04/11 10:19:59;;;;;;;;;;;;;;;22.01;37.95;101898.46;104116;1291;72186;-79
2024/04/11 10:22:25;;;;;;;;;;;;;;;22.03;37.75;101892.27;104227;1291;75803;-79
2024/04/11 10:25:01;;;;;;;;;;;;;;;22.03;37.62;101898.02;104576;1290;63275;-80
2024/04/11 10:27:29;;;;;;;;;;;;;;;22.03;37.64;101895.52;104192;1290;63405;-79
2024/04/11 10:29:56;;;;;;;;;;;;;;;22.03;37.50;101892.47;104501;1289;72442;-81
2024/04/11 10:32:22;;;;;;;;;;;;;;;22.03;37.59;101899.28;104457;1289;76114;-80
2024/04/11 10:34:55;;;;;;;;;;;;;;;22.02;37.60;101896.61;104365;1291;60985;-80
2024/04/11 10:37:23;;;;;;;;;;;;;;;22.01;37.65;101894.51;104566;1289;63690;-81
2024/04/11 10:39:54;;;;;;;;;;;;;;;22.01;37.48;101893.30;104538;1288;73144;-79
2024/04/11 10:42:27;;;;;;;;;;;;;;;22.00;37.69;101891.38;104346;1289;76461;-81
2024/04/11 10:44:53;;;;;;;;;;;;;;;21.99;37.74;101887.84;105133;1290;60396;-79
2024/04/11 10:47:19;;;;;;;;;;;;;;;21.98;37.79;101884.85;104058;1290;63033;-79
2024/04/11 10:49:45;;;;;;;;;;;;;;;21.98;37.82;101883.98;104327;1291;63052;-79
2024/04/11 10:52:11;;;;;;;;;;;;;;;21.99;37.81;101879.25;104903;1291;62885;-79
2024/04/11 10:54:39;;;;;;;;;;;;;;;22.00;37.95;101881.14;104589;1289;63032;-80
2024/04/11 10:57:12;;;;;;;;;;;;;;;22.03;37.85;101874.91;105020;1289;62965;-81
2024/04/11 10:59:50;;;;;;;;;;;;;;;22.05;37.99;101869.54;105980;1294;72638;-80
2024/04/11 11:02:19;;;;;;;;;;;;;;;22.07;38.09;101867.30;105817;1290;75815;-81
2024/04/11 11:04:45;;;;;;;;;;;;;;;22.07;38.24;101867.31;106038;1290;60625;-82
2024/04/11 11:07:11;;;;;;;;;;;;;;;22.07;38.18;101865.47;106034;1291;61224;-78
2024/04/11 11:09:42;;;;;;;;;;;;;;;22.10;38.12;101858.90;106055;1291;60442;-80
2024/04/11 11:12:15;;;;;;;;;;;;;;;22.10;38.18;101859.59;105991;1291;76111;-80
2024/04/11 11:14:41;;;;;;;;;;;;;;;22.12;38.23;101858.05;105879;1290;60911;-80
2024/04/11 11:17:07;;;;;;;;;;;;;;;22.13;38.28;101855.48;106045;1290;60729;-81
2024/04/11 11:19:37;;;;;;;;;;;;;;;22.14;38.20;101860.97;105941;1291;61177;-80
2024/04/11 11:22:10;;;;;;;;;;;;;;;22.16;38.17;101861.58;105900;1294;76414;-81
2024/04/11 11:24:36;;;;;;;;;;;;;;;22.20;37.84;101857.20;105864;1290;60388;-80
2024/04/11 11:27:02;;;;;;;;;;;;;;;22.23;37.74;101855.78;105929;1289;61076;-79
2024/04/11 11:29:28;;;;;;;;;;;;;;;22.25;37.57;101852.60;105986;1290;60522;-80
2024/04/11 11:32:01;;;;;;;;;;;;;;;22.25;37.51;101852.23;106020;1291;61392;-79
2024/04/11 11:34:27;;;;;;;;;;;;;;;22.27;37.39;101851.42;105817;1291;60396;-81
2024/04/11 11:36:57;;;;;;;;;;;;;;;22.27;37.18;101846.34;105966;1291;60509;-80
2024/04/11 11:39:26;;;;;;;;;;;;;;;22.28;37.31;101849.73;106024;1289;72201;-79
2024/04/11 11:42:00;;;;;;;;;;;;;;;22.28;37.27;101848.83;106042;1292;75944;-81
2024/04/11 11:44:33;;;;;;;;;;;;;;;22.28;37.18;101843.81;105673;1289;60530;-79
2024/04/11 11:47:08;;;;;;;;;;;;;;;22.27;37.05;101843.16;105982;1288;61093;-80
2024/04/11 11:49:38;;;;;;;;;;;;;;;22.28;37.32;101836.49;105938;1291;72362;-80
2024/04/11 11:52:04;;;;;;;;;;;;;;;22.30;37.35;101836.17;105942;1288;77015;-80
2024/04/11 11:54:34;;;;;;;;;;;;;;;22.32;37.14;101834.65;105987;1290;60387;-79
2024/04/11 11:57:09;;;;;;;;;;;;;;;22.32;36.90;101829.44;105860;1291;61304;-79
2024/04/11 11:59:35;;;;;;;;;;;;;;;22.31;36.75;101829.33;105840;1290;72121;-80
2024/04/11 12:02:01;;;;;;;;;;;;;;;22.30;36.76;101823.66;105962;1290;60938;-79
2024/04/11 12:04:30;;;;;;;;;;;;;;;22.30;36.73;101819.70;105950;1289;60748;-80
2024/04/11 12:07:00;;;;;;;;;;;;;;;22.32;36.54;101818.52;106085;1289;60317;-80
2024/04/11 12:09:31;;;;;;;;;;;;;;;22.33;36.52;101815.71;105978;1291;72680;-80
2024/04/11 12:12:20;;;;;;;;;;;;;;;22.35;36.43;101805.76;106069;1289;76090;-79
2024/04/11 12:14:54;;;;;;;;;;;;;;;22.37;36.34;101803.67;105928;1292;60952;-80
2024/04/11 12:17:26;;;;;;;;;;;;;;;22.39;36.38;101803.73;105703;1292;60593;-81
2024/04/11 12:19:52;;;;;;;;;;;;;;;22.43;36.39;101804.73;105675;1291;72808;-81
2024/04/11 12:22:19;;;;;;;;;;;;;;;22.45;36.24;101809.14;105699;1291;75448;-81
2024/04/11 12:24:45;;;;;;;;;;;;;;;22.46;35.85;101802.94;105734;1291;61056;-81
2024/04/11 12:27:14;;;;;;;;;;;;;;;22.49;35.76;101804.04;105676;1291;60484;-81
2024/04/11 12:29:42;;;;;;;;;;;;;;;22.50;35.55;101804.48;105826;1290;72098;-79